sensor_id;sensor_type;location;lat;lon;timestamp;pressure;altitude;pressure_sealevel;temperature;humidity
48862;BME280;34681;49.188;-0.374;2024-01-15T00:00:41;100895.69;;;5.10;73.05
48862;BME280;34681;49.188;-0.374;2024-01-15T00:03:06;100887.66;;;5.08;73.08
48862;BME280;34681;49.188;-0.374;2024-01-15T00:05:32;100889.63;;;5.06;73.34
48862;BME280;34681;49.188;-0.374;2024-01-15T00:07:57;100882.78;;;5.01;73.44
48862;BME280;34681;49.188;-0.374;2024-01-15T00:10:23;100879.84;;;5.17;73.23
48862;BME280;34681;49.188;-0.374;2024-01-15T00:12:49;100884.84;;;5.10;73.30
48862;BME280;34681;49.188;-0.374;2024-01-15T00:15:14;100880.94;;;5.14;73.41
48862;BME280;34681;49.188;-0.374;2024-01-15T00:17:40;100876.69;;;5.10;73.66
48862;BME280;34681;49.188;-0.374;2024-01-15T00:20:06;100879.28;;;5.12;73.46
48862;BME280;34681;49.188;-0.374;2024-01-15T00:22:31;100868.56;;;5.10;73.72
48862;BME280;34681;49.188;-0.374;2024-01-15T00:24:57;100869.22;;;5.14;73.89
48862;BME280;34681;49.188;-0.374;2024-01-15T00:27:22;100870.63;;;5.19;73.57
48862;BME280;34681;49.188;-0.374;2024-01-15T00:29:49;100872.91;;;5.25;73.20
48862;BME280;34681;49.188;-0.374;2024-01-15T00:32:15;100864.75;;;5.25;73.39
48862;BME280;34681;49.188;-0.374;2024-01-15T00:34:40;100869.09;;;5.28;73.35
48862;BME280;34681;49.188;-0.374;2024-01-15T00:37:06;100862.16;;;5.24;73.48
48862;BME280;34681;49.188;-0.374;2024-01-15T00:39:32;100856.94;;;5.33;73.15
48862;BME280;34681;49.188;-0.374;2024-01-15T00:41:57;100850.66;;;5.33;73.32
48862;BME280;34681;49.188;-0.374;2024-01-15T00:44:23;100852.13;;;5.37;73.19
48862;BME280;34681;49.188;-0.374;2024-01-15T00:46:48;100842.06;;;5.39;73.17
48862;BME280;34681;49.188;-0.374;2024-01-15T00:49:13;100841.09;;;5.40;72.90
48862;BME280;34681;49.188;-0.374;2024-01-15T00:51:39;100849.09;;;5.42;73.21
48862;BME280;34681;49.188;-0.374;2024-01-15T00:54:04;100836.16;;;5.45;72.69
48862;BME280;34681;49.188;-0.374;2024-01-15T00:56:30;100833.06;;;5.39;72.64
48862;BME280;34681;49.188;-0.374;2024-01-15T00:58:55;100831.97;;;5.28;72.70
48862;BME280;34681;49.188;-0.374;2024-01-15T01:01:20;100825.28;;;5.08;73.20
48862;BME280;34681;49.188;-0.374;2024-01-15T01:03:46;100821.47;;;4.86;73.83
48862;BME280;34681;49.188;-0.374;2024-01-15T01:06:11;100833.84;;;4.90;73.73
48862;BME280;34681;49.188;-0.374;2024-01-15T01:08:36;100820.50;;;4.99;73.14
48862;BME280;34681;49.188;-0.374;2024-01-15T01:11:02;100822.13;;;5.02;72.93
48862;BME280;34681;49.188;-0.374;2024-01-15T01:13:27;100827.22;;;4.94;72.98
48862;BME280;34681;49.188;-0.374;2024-01-15T01:15:52;100825.19;;;4.97;72.88
48862;BME280;34681;49.188;-0.374;2024-01-15T01:18:18;100811.06;;;4.92;72.81
48862;BME280;34681;49.188;-0.374;2024-01-15T01:20:43;100813.34;;;4.86;73.03
48862;BME280;34681;49.188;-0.374;2024-01-15T01:23:08;100806.41;;;4.82;73.34
48862;BME280;34681;49.188;-0.374;2024-01-15T01:25:34;100809.78;;;4.85;73.65
48862;BME280;34681;49.188;-0.374;2024-01-15T01:27:59;100806.41;;;4.94;73.39
48862;BME280;34681;49.188;-0.374;2024-01-15T01:30:24;100795.22;;;5.12;72.58
48862;BME280;34681;49.188;-0.374;2024-01-15T01:32:50;100802.41;;;5.00;73.26
48862;BME280;34681;49.188;-0.374;2024-01-15T01:35:15;100806.84;;;5.01;73.41
48862;BME280;34681;49.188;-0.374;2024-01-15T01:37:40;100807.50;;;4.92;73.91
48862;BME280;34681;49.188;-0.374;2024-01-15T01:40:06;100807.47;;;5.04;73.36
48862;BME280;34681;49.188;-0.374;2024-01-15T01:42:32;100809.44;;;5.15;73.28
48862;BME280;34681;49.188;-0.374;2024-01-15T01:44:57;100807.03;;;5.23;72.94
48862;BME280;34681;49.188;-0.374;2024-01-15T01:47:23;100804.53;;;5.20;73.31
48862;BME280;34681;49.188;-0.374;2024-01-15T01:49:51;100803.97;;;5.28;72.78
48862;BME280;34681;49.188;-0.374;2024-01-15T01:52:17;100803.84;;;5.29;73.06
48862;BME280;34681;49.188;-0.374;2024-01-15T01:54:42;100789.22;;;5.32;72.94
48862;BME280;34681;49.188;-0.374;2024-01-15T01:57:08;100787.78;;;5.39;72.97
48862;BME280;34681;49.188;-0.374;2024-01-15T01:59:34;100796.03;;;5.38;72.91
48862;BME280;34681;49.188;-0.374;2024-01-15T02:02:02;100793.09;;;5.41;72.75
48862;BME280;34681;49.188;-0.374;2024-01-15T02:04:29;100795.69;;;5.42;72.81
48862;BME280;34681;49.188;-0.374;2024-01-15T02:06:55;100789.34;;;5.30;73.18
48862;BME280;34681;49.188;-0.374;2024-01-15T02:09:21;100799.09;;;5.20;73.46
48862;BME280;34681;49.188;-0.374;2024-01-15T02:11:47;100790.50;;;5.39;73.13
48862;BME280;34681;49.188;-0.374;2024-01-15T02:14:12;100795.59;;;5.44;72.91
48862;BME280;34681;49.188;-0.374;2024-01-15T02:16:38;100797.00;;;5.49;72.99
48862;BME280;34681;49.188;-0.374;2024-01-15T02:19:03;100791.38;;;5.40;73.07
48862;BME280;34681;49.188;-0.374;2024-01-15T02:21:28;100786.28;;;5.35;73.44
48862;BME280;34681;49.188;-0.374;2024-01-15T02:23:55;100782.00;;;5.44;73.19
48862;BME280;34681;49.188;-0.374;2024-01-15T02:26:21;100781.84;;;5.34;73.57
48862;BME280;34681;49.188;-0.374;2024-01-15T02:28:47;100784.84;;;5.42;73.41
48862;BME280;34681;49.188;-0.374;2024-01-15T02:31:13;100781.16;;;5.43;73.42
48862;BME280;34681;49.188;-0.374;2024-01-15T02:33:38;100784.97;;;5.41;73.51
48862;BME280;34681;49.188;-0.374;2024-01-15T02:36:04;100795.69;;;5.42;73.58
48862;BME280;34681;49.188;-0.374;2024-01-15T02:38:29;100790.81;;;5.47;73.25
48862;BME280;34681;49.188;-0.374;2024-01-15T02:40:55;100789.47;;;5.53;73.20
48862;BME280;34681;49.188;-0.374;2024-01-15T02:43:20;100786.75;;;5.53;73.26
48862;BME280;34681;49.188;-0.374;2024-01-15T02:45:45;100792.50;;;5.61;73.10
48862;BME280;34681;49.188;-0.374;2024-01-15T02:48:12;100791.41;;;5.63;72.80
48862;BME280;34681;49.188;-0.374;2024-01-15T02:50:37;100787.19;;;5.59;72.91
48862;BME280;34681;49.188;-0.374;2024-01-15T02:53:02;100799.34;;;5.54;73.27
48862;BME280;34681;49.188;-0.374;2024-01-15T02:55:28;100799.59;;;5.51;73.34
48862;BME280;34681;49.188;-0.374;2024-01-15T02:57:54;100803.53;;;5.47;73.49
48862;BME280;34681;49.188;-0.374;2024-01-15T03:00:20;100811.06;;;5.54;73.06
48862;BME280;34681;49.188;-0.374;2024-01-15T03:02:45;100802.47;;;5.60;73.03
48862;BME280;34681;49.188;-0.374;2024-01-15T03:05:11;100809.75;;;5.60;73.17
48862;BME280;34681;49.188;-0.374;2024-01-15T03:07:36;100805.38;;;5.70;72.73
48862;BME280;34681;49.188;-0.374;2024-01-15T03:10:02;100805.78;;;5.77;72.34
48862;BME280;34681;49.188;-0.374;2024-01-15T03:12:27;100801.16;;;5.66;72.75
48862;BME280;34681;49.188;-0.374;2024-01-15T03:14:53;100806.84;;;5.63;72.73
48862;BME280;34681;49.188;-0.374;2024-01-15T03:17:18;100800.06;;;5.69;72.85
48862;BME280;34681;49.188;-0.374;2024-01-15T03:19:44;100790.25;;;5.55;72.86
48862;BME280;34681;49.188;-0.374;2024-01-15T03:22:09;100796.06;;;5.61;72.83
48862;BME280;34681;49.188;-0.374;2024-01-15T03:24:35;100791.28;;;5.65;72.64
48862;BME280;34681;49.188;-0.374;2024-01-15T03:27:00;100782.91;;;5.68;72.52
48862;BME280;34681;49.188;-0.374;2024-01-15T03:29:26;100776.75;;;5.66;72.62
48862;BME280;34681;49.188;-0.374;2024-01-15T03:31:52;100773.94;;;5.79;72.09
48862;BME280;34681;49.188;-0.374;2024-01-15T03:34:17;100772.28;;;5.65;72.41
48862;BME280;34681;49.188;-0.374;2024-01-15T03:36:43;100776.97;;;5.63;72.44
48862;BME280;34681;49.188;-0.374;2024-01-15T03:39:08;100767.72;;;5.66;72.46
48862;BME280;34681;49.188;-0.374;2024-01-15T03:41:33;100763.78;;;5.70;72.24
48862;BME280;34681;49.188;-0.374;2024-01-15T03:43:59;100768.88;;;5.74;71.92
48862;BME280;34681;49.188;-0.374;2024-01-15T03:46:24;100763.56;;;5.73;72.28
48862;BME280;34681;49.188;-0.374;2024-01-15T03:48:50;100774.34;;;5.61;72.73
48862;BME280;34681;49.188;-0.374;2024-01-15T03:51:17;100769.47;;;5.67;72.49
48862;BME280;34681;49.188;-0.374;2024-01-15T03:53:43;100765.34;;;5.61;72.44
48862;BME280;34681;49.188;-0.374;2024-01-15T03:56:08;100778.78;;;5.62;72.57
48862;BME280;34681;49.188;-0.374;2024-01-15T03:58:34;100772.88;;;5.57;72.80
48862;BME280;34681;49.188;-0.374;2024-01-15T04:00:59;100778.13;;;5.48;72.90
48862;BME280;34681;49.188;-0.374;2024-01-15T04:03:24;100771.56;;;5.50;73.15
48862;BME280;34681;49.188;-0.374;2024-01-15T04:05:49;100778.84;;;5.50;73.17
48862;BME280;34681;49.188;-0.374;2024-01-15T04:08:15;100779.97;;;5.47;73.09
48862;BME280;34681;49.188;-0.374;2024-01-15T04:10:40;100769.66;;;5.40;73.29
48862;BME280;34681;49.188;-0.374;2024-01-15T04:13:05;100775.59;;;5.45;73.33
48862;BME280;34681;49.188;-0.374;2024-01-15T04:15:31;100783.25;;;5.27;74.02
48862;BME280;34681;49.188;-0.374;2024-01-15T04:17:56;100772.41;;;5.27;74.09
48862;BME280;34681;49.188;-0.374;2024-01-15T04:20:22;100781.28;;;5.29;74.43
48862;BME280;34681;49.188;-0.374;2024-01-15T04:22:47;100774.00;;;5.29;74.64
48862;BME280;34681;49.188;-0.374;2024-01-15T04:25:13;100781.50;;;5.39;74.41
48862;BME280;34681;49.188;-0.374;2024-01-15T04:27:38;100774.56;;;5.34;74.79
48862;BME280;34681;49.188;-0.374;2024-01-15T04:30:04;100773.56;;;5.48;74.50
48862;BME280;34681;49.188;-0.374;2024-01-15T04:32:30;100769.44;;;5.43;74.72
48862;BME280;34681;49.188;-0.374;2024-01-15T04:34:55;100769.78;;;5.38;75.01
48862;BME280;34681;49.188;-0.374;2024-01-15T04:37:20;100777.69;;;5.41;74.94
48862;BME280;34681;49.188;-0.374;2024-01-15T04:39:46;100780.09;;;5.33;75.26
48862;BME280;34681;49.188;-0.374;2024-01-15T04:42:11;100777.75;;;5.52;75.02
48862;BME280;34681;49.188;-0.374;2024-01-15T04:44:36;100773.47;;;5.61;74.72
48862;BME280;34681;49.188;-0.374;2024-01-15T04:47:02;100776.50;;;5.69;74.54
48862;BME280;34681;49.188;-0.374;2024-01-15T04:49:27;100775.13;;;5.63;74.75
48862;BME280;34681;49.188;-0.374;2024-01-15T04:51:54;100762.72;;;5.72;74.62
48862;BME280;34681;49.188;-0.374;2024-01-15T04:54:19;100767.16;;;5.73;74.49
48862;BME280;34681;49.188;-0.374;2024-01-15T04:56:45;100767.91;;;5.75;74.71
48862;BME280;34681;49.188;-0.374;2024-01-15T04:59:11;100757.91;;;5.76;74.56
48862;BME280;34681;49.188;-0.374;2024-01-15T05:01:36;100757.91;;;5.76;74.59
48862;BME280;34681;49.188;-0.374;2024-01-15T05:04:02;100757.56;;;5.80;74.60
48862;BME280;34681;49.188;-0.374;2024-01-15T05:06:27;100750.41;;;5.79;74.66
48862;BME280;34681;49.188;-0.374;2024-01-15T05:08:52;100753.47;;;5.75;74.45
48862;BME280;34681;49.188;-0.374;2024-01-15T05:11:18;100752.47;;;5.76;74.39
48862;BME280;34681;49.188;-0.374;2024-01-15T05:13:43;100748.19;;;5.84;74.51
48862;BME280;34681;49.188;-0.374;2024-01-15T05:16:09;100744.28;;;5.88;74.13
48862;BME280;34681;49.188;-0.374;2024-01-15T05:18:34;100749.16;;;5.96;74.04
48862;BME280;34681;49.188;-0.374;2024-01-15T05:20:59;100750.19;;;6.06;73.70
48862;BME280;34681;49.188;-0.374;2024-01-15T05:23:25;100755.84;;;6.03;73.83
48862;BME280;34681;49.188;-0.374;2024-01-15T05:25:50;100744.81;;;5.94;74.40
48862;BME280;34681;49.188;-0.374;2024-01-15T05:28:16;100750.66;;;5.87;74.48
48862;BME280;34681;49.188;-0.374;2024-01-15T05:30:41;100746.72;;;5.80;74.69
48862;BME280;34681;49.188;-0.374;2024-01-15T05:33:06;100754.16;;;5.89;74.55
48862;BME280;34681;49.188;-0.374;2024-01-15T05:35:33;100756.53;;;5.94;74.24
48862;BME280;34681;49.188;-0.374;2024-01-15T05:37:58;100765.22;;;5.99;74.06
48862;BME280;34681;49.188;-0.374;2024-01-15T05:40:24;100767.75;;;5.89;74.40
48862;BME280;34681;49.188;-0.374;2024-01-15T05:42:50;100766.31;;;5.97;74.10
48862;BME280;34681;49.188;-0.374;2024-01-15T05:45:15;100764.34;;;5.99;74.09
48862;BME280;34681;49.188;-0.374;2024-01-15T05:47:40;100757.19;;;5.98;74.23
48862;BME280;34681;49.188;-0.374;2024-01-15T05:50:06;100760.13;;;5.95;74.29
48862;BME280;34681;49.188;-0.374;2024-01-15T05:52:32;100764.94;;;5.91;74.53
48862;BME280;34681;49.188;-0.374;2024-01-15T05:54:57;100765.13;;;5.88;74.65
48862;BME280;34681;49.188;-0.374;2024-01-15T05:57:23;100767.19;;;5.84;74.62
48862;BME280;34681;49.188;-0.374;2024-01-15T05:59:48;100764.81;;;5.93;74.50
48862;BME280;34681;49.188;-0.374;2024-01-15T06:02:13;100773.81;;;5.93;74.50
48862;BME280;34681;49.188;-0.374;2024-01-15T06:04:39;100770.66;;;5.86;74.77
48862;BME280;34681;49.188;-0.374;2024-01-15T06:07:04;100773.63;;;5.83;74.55
48862;BME280;34681;49.188;-0.374;2024-01-15T06:09:30;100774.06;;;5.77;74.59
48862;BME280;34681;49.188;-0.374;2024-01-15T06:11:56;100776.66;;;5.79;74.71
48862;BME280;34681;49.188;-0.374;2024-01-15T06:14:22;100778.59;;;5.89;74.08
48862;BME280;34681;49.188;-0.374;2024-01-15T06:16:47;100780.63;;;5.75;74.35
48862;BME280;34681;49.188;-0.374;2024-01-15T06:19:12;100780.28;;;5.79;74.26
48862;BME280;34681;49.188;-0.374;2024-01-15T06:21:58;100784.81;;;5.91;73.96
48862;BME280;34681;49.188;-0.374;2024-01-15T06:24:23;100792.47;;;5.74;74.34
48862;BME280;34681;49.188;-0.374;2024-01-15T06:26:49;100786.78;;;5.77;74.19
48862;BME280;34681;49.188;-0.374;2024-01-15T06:29:14;100778.72;;;5.88;73.95
48862;BME280;34681;49.188;-0.374;2024-01-15T06:31:39;100783.22;;;5.76;74.11
48862;BME280;34681;49.188;-0.374;2024-01-15T06:34:05;100793.50;;;5.84;73.85
48862;BME280;34681;49.188;-0.374;2024-01-15T06:36:30;100791.72;;;5.96;73.44
48862;BME280;34681;49.188;-0.374;2024-01-15T06:38:56;100783.16;;;5.89;73.72
48862;BME280;34681;49.188;-0.374;2024-01-15T06:41:21;100792.97;;;5.79;73.77
48862;BME280;34681;49.188;-0.374;2024-01-15T06:43:46;100784.34;;;5.61;73.33
48862;BME280;34681;49.188;-0.374;2024-01-15T06:46:12;100786.81;;;5.40;71.57
48862;BME280;34681;49.188;-0.374;2024-01-15T06:48:37;100791.75;;;5.10;71.77
48862;BME280;34681;49.188;-0.374;2024-01-15T06:51:02;100787.31;;;5.08;70.93
48862;BME280;34681;49.188;-0.374;2024-01-15T06:53:28;100787.84;;;5.14;70.50
48862;BME280;34681;49.188;-0.374;2024-01-15T06:55:53;100792.25;;;5.27;70.61
48862;BME280;34681;49.188;-0.374;2024-01-15T06:58:18;100782.88;;;5.44;70.33
48862;BME280;34681;49.188;-0.374;2024-01-15T07:00:44;100789.31;;;5.67;69.60
48862;BME280;34681;49.188;-0.374;2024-01-15T07:03:09;100793.78;;;5.68;69.39
48862;BME280;34681;49.188;-0.374;2024-01-15T07:05:34;100796.66;;;5.78;69.09
48862;BME280;34681;49.188;-0.374;2024-01-15T07:08:00;100798.91;;;5.84;69.07
48862;BME280;34681;49.188;-0.374;2024-01-15T07:10:25;100799.13;;;5.94;69.02
48862;BME280;34681;49.188;-0.374;2024-01-15T07:12:51;100800.16;;;6.04;68.35
48862;BME280;34681;49.188;-0.374;2024-01-15T07:15:16;100802.84;;;5.93;68.75
48862;BME280;34681;49.188;-0.374;2024-01-15T07:17:42;100803.25;;;5.99;68.56
48862;BME280;34681;49.188;-0.374;2024-01-15T07:20:08;100803.91;;;5.90;68.41
48862;BME280;34681;49.188;-0.374;2024-01-15T07:22:35;100805.88;;;5.88;68.17
48862;BME280;34681;49.188;-0.374;2024-01-15T07:25:00;100805.28;;;5.72;67.45
48862;BME280;34681;49.188;-0.374;2024-01-15T07:27:26;100808.78;;;5.61;66.63
48862;BME280;34681;49.188;-0.374;2024-01-15T07:29:51;100808.63;;;5.39;65.82
48862;BME280;34681;49.188;-0.374;2024-01-15T07:32:17;100815.38;;;5.33;66.27
48862;BME280;34681;49.188;-0.374;2024-01-15T07:34:42;100816.53;;;5.42;65.51
48862;BME280;34681;49.188;-0.374;2024-01-15T07:37:08;100815.28;;;5.22;63.62
48862;BME280;34681;49.188;-0.374;2024-01-15T07:39:33;100816.47;;;5.18;64.20
48862;BME280;34681;49.188;-0.374;2024-01-15T07:42:00;100819.84;;;5.08;64.21
48862;BME280;34681;49.188;-0.374;2024-01-15T07:44:25;100815.25;;;5.34;64.11
48862;BME280;34681;49.188;-0.374;2024-01-15T07:46:51;100823.34;;;5.60;63.64
48862;BME280;34681;49.188;-0.374;2024-01-15T07:49:16;100831.91;;;5.54;62.94
48862;BME280;34681;49.188;-0.374;2024-01-15T07:51:42;100830.41;;;5.50;62.77
48862;BME280;34681;49.188;-0.374;2024-01-15T07:54:09;100831.84;;;5.43;61.75
48862;BME280;34681;49.188;-0.374;2024-01-15T07:56:34;100829.19;;;5.54;62.29
48862;BME280;34681;49.188;-0.374;2024-01-15T07:59:17;100821.88;;;5.80;62.16
48862;BME280;34681;49.188;-0.374;2024-01-15T08:01:43;100822.13;;;6.01;61.27
48862;BME280;34681;49.188;-0.374;2024-01-15T08:04:08;100834.78;;;5.76;62.33
48862;BME280;34681;49.188;-0.374;2024-01-15T08:06:34;100828.06;;;5.69;61.84
48862;BME280;34681;49.188;-0.374;2024-01-15T08:09:00;100839.34;;;5.88;61.20
48862;BME280;34681;49.188;-0.374;2024-01-15T08:11:25;100838.53;;;5.99;61.15
48862;BME280;34681;49.188;-0.374;2024-01-15T08:13:51;100823.53;;;6.06;60.94
48862;BME280;34681;49.188;-0.374;2024-01-15T08:16:17;100831.88;;;6.03;61.45
48862;BME280;34681;49.188;-0.374;2024-01-15T08:18:42;100832.72;;;6.16;60.99
48862;BME280;34681;49.188;-0.374;2024-01-15T08:21:09;100840.28;;;6.24;60.89
48862;BME280;34681;49.188;-0.374;2024-01-15T08:23:34;100839.56;;;6.33;60.37
48862;BME280;34681;49.188;-0.374;2024-01-15T08:25:59;100840.09;;;6.38;60.28
48862;BME280;34681;49.188;-0.374;2024-01-15T08:28:25;100838.72;;;6.33;60.76
48862;BME280;34681;49.188;-0.374;2024-01-15T08:30:50;100839.28;;;6.25;61.07
48862;BME280;34681;49.188;-0.374;2024-01-15T08:33:15;100829.69;;;6.32;60.63
48862;BME280;34681;49.188;-0.374;2024-01-15T08:35:41;100836.09;;;6.55;59.88
48862;BME280;34681;49.188;-0.374;2024-01-15T08:38:06;100839.59;;;6.44;60.12
48862;BME280;34681;49.188;-0.374;2024-01-15T08:40:31;100842.81;;;6.38;60.87
48862;BME280;34681;49.188;-0.374;2024-01-15T08:42:57;100839.13;;;6.39;61.27
48862;BME280;34681;49.188;-0.374;2024-01-15T08:45:22;100841.41;;;6.57;60.58
48862;BME280;34681;49.188;-0.374;2024-01-15T08:47:48;100843.25;;;6.56;60.91
48862;BME280;34681;49.188;-0.374;2024-01-15T08:50:13;100838.56;;;6.58;60.88
48862;BME280;34681;49.188;-0.374;2024-01-15T08:52:39;100830.78;;;6.65;61.08
48862;BME280;34681;49.188;-0.374;2024-01-15T08:55:04;100837.63;;;6.70;60.75
48862;BME280;34681;49.188;-0.374;2024-01-15T08:57:29;100836.25;;;6.76;61.04
48862;BME280;34681;49.188;-0.374;2024-01-15T08:59:55;100840.47;;;6.80;61.18
48862;BME280;34681;49.188;-0.374;2024-01-15T09:02:20;100832.31;;;6.91;61.04
48862;BME280;34681;49.188;-0.374;2024-01-15T09:04:46;100840.38;;;6.93;61.09
48862;BME280;34681;49.188;-0.374;2024-01-15T09:07:12;100835.44;;;6.98;61.32
48862;BME280;34681;49.188;-0.374;2024-01-15T09:09:37;100832.59;;;6.99;61.36
48862;BME280;34681;49.188;-0.374;2024-01-15T09:12:02;100831.97;;;7.07;61.44
48862;BME280;34681;49.188;-0.374;2024-01-15T09:14:28;100836.03;;;7.01;61.84
48862;BME280;34681;49.188;-0.374;2024-01-15T09:16:54;100830.84;;;7.10;61.85
48862;BME280;34681;49.188;-0.374;2024-01-15T09:19:19;100837.56;;;7.17;61.93
48862;BME280;34681;49.188;-0.374;2024-01-15T09:21:45;100840.91;;;7.20;61.94
48862;BME280;34681;49.188;-0.374;2024-01-15T09:24:10;100843.38;;;7.23;62.13
48862;BME280;34681;49.188;-0.374;2024-01-15T09:26:36;100849.94;;;7.21;61.95
48862;BME280;34681;49.188;-0.374;2024-01-15T09:29:01;100848.09;;;7.21;62.31
48862;BME280;34681;49.188;-0.374;2024-01-15T09:31:28;100856.00;;;7.24;62.17
48862;BME280;34681;49.188;-0.374;2024-01-15T09:33:53;100859.06;;;7.20;62.53
48862;BME280;34681;49.188;-0.374;2024-01-15T09:36:22;100856.00;;;7.24;62.27
48862;BME280;34681;49.188;-0.374;2024-01-15T09:38:48;100851.03;;;7.18;62.45
48862;BME280;34681;49.188;-0.374;2024-01-15T09:41:13;100856.47;;;7.18;62.69
48862;BME280;34681;49.188;-0.374;2024-01-15T09:43:38;100854.25;;;7.12;63.02
48862;BME280;34681;49.188;-0.374;2024-01-15T09:46:04;100855.59;;;7.07;63.02
48862;BME280;34681;49.188;-0.374;2024-01-15T09:48:29;100857.47;;;7.06;63.21
48862;BME280;34681;49.188;-0.374;2024-01-15T09:50:57;100857.84;;;7.13;63.06
48862;BME280;34681;49.188;-0.374;2024-01-15T09:53:25;100863.50;;;7.10;63.35
48862;BME280;34681;49.188;-0.374;2024-01-15T09:55:51;100868.72;;;7.13;63.39
48862;BME280;34681;49.188;-0.374;2024-01-15T09:58:18;100873.06;;;7.15;62.90
48862;BME280;34681;49.188;-0.374;2024-01-15T10:00:44;100873.66;;;7.19;62.69
48862;BME280;34681;49.188;-0.374;2024-01-15T10:03:09;100880.34;;;7.26;62.81
48862;BME280;34681;49.188;-0.374;2024-01-15T10:05:36;100889.16;;;7.29;62.95
48862;BME280;34681;49.188;-0.374;2024-01-15T10:08:02;100890.03;;;7.41;62.68
48862;BME280;34681;49.188;-0.374;2024-01-15T10:10:29;100887.56;;;7.49;62.18
48862;BME280;34681;49.188;-0.374;2024-01-15T10:12:58;100894.25;;;7.56;62.28
48862;BME280;34681;49.188;-0.374;2024-01-15T10:15:23;100898.59;;;7.70;61.88
48862;BME280;34681;49.188;-0.374;2024-01-15T10:17:50;100894.72;;;7.84;61.55
48862;BME280;34681;49.188;-0.374;2024-01-15T10:31:28;100921.97;;;8.50;60.17
48862;BME280;34681;49.188;-0.374;2024-01-15T10:33:53;100916.16;;;8.54;60.30
48862;BME280;34681;49.188;-0.374;2024-01-15T10:36:19;100916.59;;;8.70;59.78
48862;BME280;34681;49.188;-0.374;2024-01-15T10:38:45;100915.19;;;8.76;59.83
48862;BME280;34681;49.188;-0.374;2024-01-15T10:41:10;100921.84;;;8.83;59.97
48862;BME280;34681;49.188;-0.374;2024-01-15T10:43:36;100922.47;;;8.87;59.59
48862;BME280;34681;49.188;-0.374;2024-01-15T10:46:02;100923.19;;;8.89;59.57
48862;BME280;34681;49.188;-0.374;2024-01-15T10:48:28;100927.47;;;9.03;59.35
48862;BME280;34681;49.188;-0.374;2024-01-15T10:50:56;100918.41;;;9.02;59.66
48862;BME280;34681;49.188;-0.374;2024-01-15T10:53:22;100924.75;;;9.03;58.22
48862;BME280;34681;49.188;-0.374;2024-01-15T10:55:50;100934.38;;;8.86;58.97
48862;BME280;34681;49.188;-0.374;2024-01-15T10:58:16;100926.75;;;8.68;58.75
48862;BME280;34681;49.188;-0.374;2024-01-15T11:00:43;100929.72;;;8.22;57.77
48862;BME280;34681;49.188;-0.374;2024-01-15T11:03:09;100925.00;;;8.24;57.35
48862;BME280;34681;49.188;-0.374;2024-01-15T11:05:39;100924.50;;;8.41;56.83
48862;BME280;34681;49.188;-0.374;2024-01-15T11:08:06;100933.50;;;8.53;56.28
48862;BME280;34681;49.188;-0.374;2024-01-15T11:10:42;100934.84;;;8.59;55.17
48862;BME280;34681;49.188;-0.374;2024-01-15T11:13:10;100931.72;;;8.20;54.67
48862;BME280;34681;49.188;-0.374;2024-01-15T11:18:22;100931.94;;;8.28;54.26
48862;BME280;34681;49.188;-0.374;2024-01-15T11:26:34;100934.53;;;8.41;54.29
48862;BME280;34681;49.188;-0.374;2024-01-15T11:29:01;100932.03;;;8.49;54.31
48862;BME280;34681;49.188;-0.374;2024-01-15T11:31:28;100927.84;;;8.45;53.58
48862;BME280;34681;49.188;-0.374;2024-01-15T11:33:54;100932.53;;;8.32;53.30
48862;BME280;34681;49.188;-0.374;2024-01-15T11:36:22;100931.81;;;8.18;53.53
48862;BME280;34681;49.188;-0.374;2024-01-15T11:38:47;100930.75;;;7.99;53.62
48862;BME280;34681;49.188;-0.374;2024-01-15T11:41:13;100929.66;;;7.79;54.24
48862;BME280;34681;49.188;-0.374;2024-01-15T11:43:40;100936.31;;;7.86;54.05
48862;BME280;34681;49.188;-0.374;2024-01-15T11:46:10;100928.50;;;7.93;53.66
48862;BME280;34681;49.188;-0.374;2024-01-15T11:48:43;100926.28;;;7.53;54.76
48862;BME280;34681;49.188;-0.374;2024-01-15T11:51:12;100932.47;;;7.66;54.20
48862;BME280;34681;49.188;-0.374;2024-01-15T11:53:45;100930.88;;;7.75;53.79
48862;BME280;34681;49.188;-0.374;2024-01-15T11:56:16;100932.75;;;7.63;54.28
48862;BME280;34681;49.188;-0.374;2024-01-15T11:58:42;100918.50;;;7.59;55.00
48862;BME280;34681;49.188;-0.374;2024-01-15T12:01:08;100924.31;;;7.55;55.79
48862;BME280;34681;49.188;-0.374;2024-01-15T12:03:34;100933.22;;;7.57;56.01
48862;BME280;34681;49.188;-0.374;2024-01-15T12:05:59;100944.47;;;7.52;55.50
48862;BME280;34681;49.188;-0.374;2024-01-15T12:08:25;100944.69;;;7.27;56.46
48862;BME280;34681;49.188;-0.374;2024-01-15T12:10:52;100948.06;;;7.30;55.59
48862;BME280;34681;49.188;-0.374;2024-01-15T12:13:18;100936.13;;;7.09;55.28
48862;BME280;34681;49.188;-0.374;2024-01-15T12:15:46;100941.53;;;6.98;54.78
48862;BME280;34681;49.188;-0.374;2024-01-15T12:18:13;100941.25;;;6.90;55.53
48862;BME280;34681;49.188;-0.374;2024-01-15T12:20:39;100945.00;;;6.65;55.70
48862;BME280;34681;49.188;-0.374;2024-01-15T12:23:05;100942.19;;;6.78;56.37
48862;BME280;34681;49.188;-0.374;2024-01-15T12:25:35;100936.97;;;6.98;55.01
48862;BME280;34681;49.188;-0.374;2024-01-15T12:28:01;100938.16;;;6.94;54.37
48862;BME280;34681;49.188;-0.374;2024-01-15T12:30:27;100948.13;;;7.07;53.84
48862;BME280;34681;49.188;-0.374;2024-01-15T12:32:54;100942.94;;;7.15;53.53
48862;BME280;34681;49.188;-0.374;2024-01-15T12:35:20;100950.28;;;6.90;53.60
48862;BME280;34681;49.188;-0.374;2024-01-15T12:37:47;100947.84;;;6.98;53.33
48862;BME280;34681;49.188;-0.374;2024-01-15T12:40:13;100945.13;;;6.98;53.72
48862;BME280;34681;49.188;-0.374;2024-01-15T12:42:40;100939.94;;;7.07;52.34
48862;BME280;34681;49.188;-0.374;2024-01-15T12:45:06;100938.53;;;6.90;52.77
48862;BME280;34681;49.188;-0.374;2024-01-15T12:47:32;100944.41;;;6.72;53.31
48862;BME280;34681;49.188;-0.374;2024-01-15T12:49:58;100946.19;;;6.85;52.65
48862;BME280;34681;49.188;-0.374;2024-01-15T12:52:27;100947.72;;;7.00;52.38
48862;BME280;34681;49.188;-0.374;2024-01-15T12:54:53;100939.25;;;6.81;51.77
48862;BME280;34681;49.188;-0.374;2024-01-15T12:57:21;100952.13;;;6.90;51.61
48862;BME280;34681;49.188;-0.374;2024-01-15T12:59:47;100957.00;;;7.09;51.51
48862;BME280;34681;49.188;-0.374;2024-01-15T13:02:13;100946.09;;;6.97;50.76